Time,TemperatureF,DewpointF,PressureIn,WindDirection,WindDirectionDegrees,WindSpeedMPH,WindSpeedGustMPH,Humidity,HourlyPrecipIn,Conditions,Clouds,dailyrainin,SolarRadiationWatts/m^2,SoftwareType,DateUTC
2015-08-29 00:00:00,60.0,58.0,-100.00,SW,225,3.0,-999.0,92,-99.99,,,-99.99,0.000000,,2015-08-29 05:00:00,
2015-08-29 00:34:00,60.0,58.0,-100.00,SW,225,3.0,-999.0,92,-99.99,,,-99.99,0.000000,,2015-08-29 05:34:00,
2015-08-29 00:44:00,60.0,58.0,-100.00,SW,225,3.0,-999.0,92,-99.99,,,-99.99,0.000000,,2015-08-29 05:44:00,
2015-08-29 00:54:00,60.0,58.0,-100.00,SW,225,3.0,-999.0,92,-99.99,,,-99.99,0.000000,,2015-08-29 05:54:00,
2015-08-29 01:00:00,59.0,57.0,-100.00,SW,225,3.0,-999.0,93,-99.99,,,-99.99,0.000000,,2015-08-29 06:00:00,
2015-08-29 01:34:00,59.0,57.0,-100.00,SW,225,3.0,-999.0,93,-99.99,,,-99.99,0.000000,,2015-08-29 06:34:00,
2015-08-29 01:44:00,59.0,57.0,-100.00,SW,225,3.0,-999.0,93,-99.99,,,-99.99,0.000000,,2015-08-29 06:44:00,
2015-08-29 01:54:00,59.0,57.0,-100.00,SW,225,3.0,-999.0,93,-99.99,,,-99.99,0.000000,,2015-08-29 06:54:00,
2015-08-29 03:00:00,57.0,55.0,-100.00,North,-9999,0.0,-999.0,93,-99.99,,,-99.99,0.000000,,2015-08-29 08:00:00,
2015-08-29 03:34:00,57.0,55.0,-100.00,North,-9999,0.0,-999.0,93,-99.99,,,-99.99,0.000000,,2015-08-29 08:34:00,
2015-08-29 03:44:00,57.0,55.0,-100.00,North,-9999,0.0,-999.0,93,-99.99,,,-99.99,0.000000,,2015-08-29 08:44:00,
2015-08-29 03:54:00,57.0,55.0,-100.00,North,-9999,0.0,-999.0,93,-99.99,,,-99.99,0.000000,,2015-08-29 08:54:00,
2015-08-29 04:00:00,57.0,56.0,-100.00,SE,135,1.0,-999.0,94,-99.99,,,-99.99,0.000000,,2015-08-29 09:00:00,
2015-08-29 04:33:00,57.0,56.0,-100.00,SE,135,1.0,-999.0,94,-99.99,,,-99.99,0.000000,,2015-08-29 09:33:00,
2015-08-29 04:44:00,57.0,56.0,-100.00,SE,135,1.0,-999.0,94,-99.99,,,-99.99,0.000000,,2015-08-29 09:44:00,
2015-08-29 04:54:00,57.0,56.0,-100.00,SE,135,1.0,-999.0,94,-99.99,,,-99.99,0.000000,,2015-08-29 09:54:00,
2015-08-29 05:00:00,57.0,56.0,-100.00,SE,135,1.0,-999.0,95,-99.99,,,-99.99,0.000000,,2015-08-29 10:00:00,
2015-08-29 05:34:00,57.0,56.0,-100.00,SE,135,1.0,-999.0,95,-99.99,,,-99.99,0.000000,,2015-08-29 10:34:00,
2015-08-29 05:44:00,57.0,56.0,-100.00,SE,135,1.0,-999.0,95,-99.99,,,-99.99,0.000000,,2015-08-29 10:44:00,
2015-08-29 05:54:00,57.0,56.0,-100.00,SE,135,1.0,-999.0,95,-99.99,,,-99.99,0.000000,,2015-08-29 10:54:00,
2015-08-29 06:00:00,58.0,57.0,-100.00,ESE,112,1.0,-999.0,95,-99.99,,,-99.99,0.000000,,2015-08-29 11:00:00,
2015-08-29 06:34:00,58.0,57.0,-100.00,ESE,112,1.0,-999.0,95,-99.99,,,-99.99,0.000000,,2015-08-29 11:34:00,
2015-08-29 06:44:00,58.0,57.0,-100.00,ESE,112,1.0,-999.0,95,-99.99,,,-99.99,0.000000,,2015-08-29 11:44:00,
2015-08-29 06:54:00,58.0,57.0,-100.00,ESE,112,1.0,-999.0,95,-99.99,,,-99.99,0.000000,,2015-08-29 11:54:00,
2015-08-29 07:00:00,58.0,57.0,-100.00,North,-9999,0.0,-999.0,95,-99.99,,,-99.99,3.480000,,2015-08-29 12:00:00,
2015-08-29 07:35:00,58.0,57.0,-100.00,North,-9999,0.0,-999.0,95,-99.99,,,-99.99,3.480000,,2015-08-29 12:35:00,
2015-08-29 07:44:00,58.0,57.0,-100.00,North,-9999,0.0,-999.0,95,-99.99,,,-99.99,3.480000,,2015-08-29 12:44:00,
2015-08-29 07:54:00,58.0,57.0,-100.00,North,-9999,0.0,-999.0,95,-99.99,,,-99.99,3.480000,,2015-08-29 12:54:00,
2015-08-29 08:00:00,58.0,57.0,-100.00,ESE,112,3.0,-999.0,95,-99.99,,,-99.99,20.879999,,2015-08-29 13:00:00,
2015-08-29 08:34:00,58.0,57.0,-100.00,ESE,112,3.0,-999.0,95,-99.99,,,-99.99,20.879999,,2015-08-29 13:34:00,
2015-08-29 08:44:00,58.0,57.0,-100.00,ESE,112,3.0,-999.0,95,-99.99,,,-99.99,20.879999,,2015-08-29 13:44:00,
2015-08-29 08:54:00,58.0,57.0,-100.00,ESE,112,3.0,-999.0,95,-99.99,,,-99.99,20.879999,,2015-08-29 13:54:00,
2015-08-29 09:00:00,57.0,56.0,-100.00,ESE,112,3.0,-999.0,96,-99.99,,,-99.99,62.639999,,2015-08-29 14:00:00,
2015-08-29 09:34:00,57.0,56.0,-100.00,ESE,112,3.0,-999.0,96,-99.99,,,-99.99,62.639999,,2015-08-29 14:34:00,
2015-08-29 09:44:00,57.0,56.0,-100.00,ESE,112,3.0,-999.0,96,-99.99,,,-99.99,62.639999,,2015-08-29 14:44:00,
2015-08-29 09:54:00,57.0,56.0,-100.00,ESE,112,3.0,-999.0,96,-99.99,,,-99.99,62.639999,,2015-08-29 14:54:00,
2015-08-29 10:34:00,58.0,57.0,-100.00,ESE,112,2.0,-999.0,96,-99.99,,,-99.99,95.120003,,2015-08-29 15:34:00,
2015-08-29 10:44:00,58.0,57.0,-100.00,ESE,112,2.0,-999.0,96,-99.99,,,-99.99,95.120003,,2015-08-29 15:44:00,
2015-08-29 10:54:00,58.0,57.0,-100.00,ESE,112,2.0,-999.0,96,-99.99,,,-99.99,95.120003,,2015-08-29 15:54:00,
2015-08-29 11:00:00,61.0,59.0,-100.00,ESE,112,4.0,-999.0,95,-99.99,,,-99.99,175.160004,,2015-08-29 16:00:00,
2015-08-29 11:34:00,61.0,59.0,-100.00,ESE,112,4.0,-999.0,95,-99.99,,,-99.99,175.160004,,2015-08-29 16:34:00,
2015-08-29 11:54:00,61.0,59.0,-100.00,ESE,112,4.0,-999.0,95,-99.99,,,-99.99,175.160004,,2015-08-29 16:54:00,
2015-08-29 12:00:00,63.0,61.0,-100.00,SE,135,4.0,-999.0,90,-99.99,,,-99.99,337.559998,,2015-08-29 17:00:00,
2015-08-29 12:34:00,63.0,61.0,-100.00,SE,135,4.0,-999.0,90,-99.99,,,-99.99,337.559998,,2015-08-29 17:34:00,
2015-08-29 12:45:00,63.0,61.0,-100.00,SE,135,4.0,-999.0,90,-99.99,,,-99.99,337.559998,,2015-08-29 17:45:00,
2015-08-29 12:54:00,63.0,61.0,-100.00,SE,135,4.0,-999.0,90,-99.99,,,-99.99,337.559998,,2015-08-29 17:54:00,
2015-08-29 13:00:00,65.0,61.0,-100.00,SE,135,2.0,-999.0,86,-99.99,,,-99.99,264.480011,,2015-08-29 18:00:00,
2015-08-29 13:34:00,65.0,61.0,-100.00,SE,135,2.0,-999.0,86,-99.99,,,-99.99,264.480011,,2015-08-29 18:34:00,
2015-08-29 13:44:00,65.0,61.0,-100.00,SE,135,2.0,-999.0,86,-99.99,,,-99.99,264.480011,,2015-08-29 18:44:00,
2015-08-29 13:54:00,65.0,61.0,-100.00,SE,135,2.0,-999.0,86,-99.99,,,-99.99,264.480011,,2015-08-29 18:54:00,
2015-08-29 14:00:00,67.0,61.0,-100.00,ESE,112,4.0,-999.0,81,-99.99,,,-99.99,557.960022,,2015-08-29 19:00:00,
2015-08-29 14:34:00,67.0,61.0,-100.00,ESE,112,4.0,-999.0,81,-99.99,,,-99.99,557.960022,,2015-08-29 19:34:00,
2015-08-29 14:44:00,67.0,61.0,-100.00,ESE,112,4.0,-999.0,81,-99.99,,,-99.99,557.960022,,2015-08-29 19:44:00,
2015-08-29 15:00:00,69.0,61.0,-100.00,SE,135,2.0,-999.0,75,-99.99,,,-99.99,446.600006,,2015-08-29 20:00:00,
2015-08-29 15:34:00,69.0,61.0,-100.00,SE,135,2.0,-999.0,75,-99.99,,,-99.99,446.600006,,2015-08-29 20:34:00,
2015-08-29 15:44:00,69.0,61.0,-100.00,SE,135,2.0,-999.0,75,-99.99,,,-99.99,446.600006,,2015-08-29 20:44:00,
2015-08-29 15:54:00,69.0,61.0,-100.00,SE,135,2.0,-999.0,75,-99.99,,,-99.99,446.600006,,2015-08-29 20:54:00,
2015-08-29 16:34:00,70.0,61.0,-100.00,ESE,112,2.0,-999.0,74,-99.99,,,-99.99,447.760010,,2015-08-29 21:34:00,
2015-08-29 16:44:00,70.0,61.0,-100.00,ESE,112,2.0,-999.0,74,-99.99,,,-99.99,447.760010,,2015-08-29 21:44:00,
2015-08-29 16:57:00,70.0,61.0,-100.00,ESE,112,2.0,-999.0,74,-99.99,,,-99.99,447.760010,,2015-08-29 21:57:00,